Terminal Aerodrome Forecast
Issued by NWS Jackson, KY

Home | Current Version | Previous Version | Text Only | Print | Product List | Glossary On
Versions: 1 2 3 4 5 6 7 8 9 10 11 12 13 14 15 16 17 18 19 20 21 22 23 24 25
000
FTUS43 KJKL 241300 AAA
TAFJKL
TAF AMD
KJKL 241311Z 2413/2512 VRB03KT 1/4SM FG VCSH BKN001 OVC010
      TEMPO 2413/2414 4SM BR SCT004 BKN015
     FM241400 VRB05KT P6SM VCSH SCT004 BKN020 OVC040
     FM242200 VRB04KT P6SM SCT020 BKN040=

USA.gov is the U.S. government's official web portal to all federal, state and local government web resources and services.